Aviation Digital Data Service (ADDS)

Output produced by METARs form (2240 UTC 30 March 2017)
found at http://www.aviationweather.gov/adds/metars/
 
DAUA 302200Z 04015KT CAVOK 20/M14 Q1023
TAF DAUA 301700Z 3018/3118 06014KT 8000 NSC 
     TEMPO 3018/3022 06024KT 3000 DRSA 
     PROB40 
     TEMPO 3111/3116 06015G25 3000 DRSA
       
DABB 302230Z 00000KT 0600 FG SCT010 09/09 Q1026
TAF DABB 301700Z 3018/3118 02012KT CAVOK 
     BECMG 3021/3023 VRB02KT
       
DABT 302200Z 10007KT CAVOK 09/01 Q1028
TAF DABT 301700Z 3018/3118 30010KT CAVOK
       
DAOR 302200Z 22005KT CAVOK 19/M00 Q1027
TAF DAOR 302000Z 3021/3106 18010KT CAVOK 
     BECMG 3100/3103 VRB02KT
       
DAAE 302200Z 23008KT CAVOK 11/07 Q1025
TAF DAAE 301700Z 3018/3118 13010KT CAVOK 
     BECMG 3102/3104 24015KT
       
DAUB 302200Z 36003KT CAVOK 15/01 Q1027
TAF DAUB 301700Z 3018/3118 17010KT CAVOK 
     BECMG 3022/3024 34010KT
       
TAF DATM 301400Z 3015/3024 02015KT 8000 NSC 
     PROB30 3015/3019 02025KT 3000 DRSA
       
DAAD 301800Z 06006KT CAVOK 20/00 Q1024
TAF DAAD 301700Z 3018/3103 VRB02KT CAVOK 
     BECMG 3020/3023 16010KT
       
DAOI 302200Z 00000KT CAVOK 18/09 Q1022
TAF DAOI 301700Z 3018/3118 VRB02KT CAVOK 
     TEMPO 3018/3021 06010KT 
     TEMPO 3102/3106 19010KT 
     BECMG 3112/3114 28010KT
       
DABC 302230Z 14005KT CAVOK 08/05 Q1027
TAF DABC 301700Z 3018/3118 32010KT CAVOK 
     BECMG 3020/3021 VRB02KT
       
DAAG 302230Z VRB02KT CAVOK 09/08 Q1023
TAF DAAG 301700Z 3018/3118 04012KT CAVOK 
     BECMG 3021/3024 20008KT 
     BECMG 3110/3113 32012KT 
     BECMG 3116/3118 VRB02KT
       
DAAJ 302200Z 01010KT CAVOK 19/M00 Q1022
TAF DAAJ 301700Z 3018/3118 05012KT CAVOK
       
DAUE 302200Z 08004KT CAVOK 17/02 Q1027
DAUO 302200Z 13003KT CAVOK 17/05 Q1027
TAF DAUO 302000Z 3021/3106 14008KT CAVOK 
     BECMG 3103/3106 20010KT
       
DAUG 302200Z 00000KT CAVOK 16/M05 Q1027
TAF DAUG 301700Z 3018/3118 10005KT CAVOK 
     BECMG 3108/3110 20010KT
       
DAUH 302230Z 07005KT CAVOK 14/01 Q1026
TAF DAUH 301700Z 3018/3118 10008KT CAVOK
       
DAAP 302200Z 06010KT CAVOK 18/01 Q1025
TAF DAAP 302000Z 3021/3106 06012KT CAVOK
       
DAUZ 302200Z 03011KT CAVOK 15/M00 Q1025
TAF DAUZ 301700Z 3018/3118 06012KT CAVOK
       
TAF DAUI 301700Z 3018/3118 06014KT 6000 NSC 
     TEMPO 3018/3024 06024KT 2000 DRSA PRBOB30 
     TEMPO 3112/3118 06015G25KT 3000 DRSA
       
DAAV 302200Z 14003KT CAVOK 12/09 Q1026
TAF DAAV 301700Z 3018/3118 04010KT CAVOK 
     BECMG 3022/3024 15005KT
       
DAUL 302200Z 00000KT CAVOK 14/M04 Q1027
TAF DAUL 302000Z 3021/3106 14010KT CAVOK 
     BECMG 3102/3105 VRB02KT
       
DAOV 302200Z 00000KT CAVOK 12/09 Q1024
TAF DAOV 301700Z 3018/3103 VRB02KT CAVOK 
     TEMPO 3018/3021 02010KT
       
DAAY 302200Z 00000KT CAVOK 13/M03 Q1029
TAF DAAY 301700Z 3018/3103 28012KT CAVOK 
     BECMG 3022/3024 18010KT
       
DAOO 302230Z 00000KT CAVOK 13/12 Q1023
TAF DAOO 301700Z 3018/3118 04012KT CAVOK 
     TEMPO 3018/3021 35015KT 
     BECMG 3021/3024 VRB02KT 
     BECMG 3112/3114 28010KT
       
DAOL 302200Z 00000KT CAVOK 11/07 Q1024
DAUU 302200Z 08006KT CAVOK 17/M01 Q1026
TAF DAUU 302000Z 3021/3106 08008KT CAVOK
       
DAAS 302200Z 36004KT CAVOK 08/01 Q1028
TAF DAAS 301700Z 3018/3118 16006KT CAVOK 
     BECMG 3022/3024 20010KT
       
DAAT 302230Z 13008KT CAVOK 21/M06 Q1023
TAF COR DAAT 301100Z 3012/3112 12012KT CAVOK 
     BECMG 3015/3018 22012KT 
     BECMG 3012/3015 26010KT 
     BECMG 3020/3023 06014KT 
     PROB40 
     TEMPO 3022/3106 06015G25KT
       
DABS 302200Z 14004KT CAVOK 09/M01 Q1028
TAF DABS 301700Z 3018/3118 32012KT CAVOK 
     BECMG 3021/3023 VRB02KT
       
DAOB 302200Z 00000KT CAVOK 10/02 Q1026
TAF DAOB 301700Z 3018/3118 18010KT CAVOK 
     BECMG 3018/3021 11008KT 
     BECMG 3100/3103 20012KT 
     BECMG 3112/3116 28010KT
       
DAFH 301800Z 09006KT CAVOK 20/M01 Q1026
TAF DAFH 301700Z 3018/3103 VRB02KT CAVOK 
     BECMG 3020/3022 15010KT
       
DAUT 302200Z 06013KT CAVOK 18/M04 Q1025
TAF DAUT 302000Z 3021/3106 04014KT CAVOK
       
DAOF 302200Z 05008KT CAVOK 24/M05 Q1023
TAF DAOF 302000Z 3021/3106 08014KT CAVOK
       
DAON 302230Z 00000KT CAVOK 11/09 Q1024
TAF DAON 301700Z 3018/3118 34010KT CAVOK 
     BECMG 3021/3023 VRB02KT 
     BECMG 3112/3114 01010KT
       
DAUK 302200Z 09005KT CAVOK 16/03 Q1027
TAF DAUK 302000Z 3021/3106 12008KT CAVOK